Barfleur — FNIE — position and weather

sailwx.info

Track history (hours):
 
Tides and Currents Weather Stations Pressure Air Temp Water Temp Dewpoint Dewpoint Depression Visibility Wind Speed Wind Dir Waves Ship Positions

Barfleur

Operator: Brittany Ferries

Last reported at 2017-Apr-23 08:00 UTC. Time now 2017-Apr-23 08:08 UTC.
Position N 50°34' W 001°53'.

Length 158 m; draft 5 m.

Type: Passenger vessel. MMSI: 227289000.

Date/timePositionNaut miles runAvg speedWind from/ knotsBaromVisibWave heightAir tempDewpointWater temp
2017-Apr-23 08:00N 50°34' W 001°53'815.1
2017-Apr-23 07:30N 50°41' W 001°57'2 4.2
2017-Apr-23 07:00N 50°42' W 001°59'0 0.0
2017-Apr-23 06:30N 50°42' W 001°59'0 0.0
2017-Apr-23 06:00N 50°42' W 001°59'0 0.0
2017-Apr-23 05:30N 50°42' W 001°59'0 0.0
2017-Apr-23 05:00N 50°42' W 001°59'0 0.0
2017-Apr-23 04:30N 50°42' W 001°59'0 0.0
2017-Apr-23 04:00N 50°42' W 001°59'0 0.0
2017-Apr-23 03:30N 50°42' W 001°59'0 0.0
2017-Apr-23 03:00N 50°42' W 001°59'0 0.0
2017-Apr-23 02:30N 50°42' W 001°59'0 0.0
2017-Apr-23 02:00N 50°42' W 001°59'0 0.0
2017-Apr-23 01:30N 50°42' W 001°59'0 0.0
2017-Apr-23 01:00N 50°42' W 001°59'0 0.0
2017-Apr-23 00:30N 50°42' W 001°59'0 0.0
2017-Apr-23 00:00N 50°42' W 001°59'0 0.0
2017-Apr-22 23:30N 50°42' W 001°59'0 0.0
2017-Apr-22 23:00N 50°42' W 001°59'0 0.0
2017-Apr-22 22:30N 50°42' W 001°59'0 0.0
2017-Apr-22 22:00N 50°42' W 001°59'0 0.0
2017-Apr-22 21:30N 50°42' W 001°59'0 0.0
2017-Apr-22 21:00N 50°42' W 001°59'1 2.2
2017-Apr-22 20:30N 50°42' W 001°58'612.0
2017-Apr-22 20:00N 50°37' W 001°53'5 0.4
2017-Apr-22 08:13N 50°32' W 001°53'418.7
2017-Apr-22 08:00N 50°36' W 001°54'613.0
2017-Apr-22 07:30N 50°42' W 001°57'1 2.8
2017-Apr-22 07:00N 50°42' W 001°59'0 0.0
2017-Apr-22 06:30N 50°42' W 001°59'0 0.0
2017-Apr-22 06:00N 50°42' W 001°59'0 0.0
2017-Apr-22 05:30N 50°42' W 001°59'0 0.0
2017-Apr-22 05:00N 50°42' W 001°59'0 0.0
2017-Apr-22 04:30N 50°42' W 001°59'0 0.0
2017-Apr-22 04:00N 50°42' W 001°59'0 0.0
2017-Apr-22 03:30N 50°42' W 001°59'0 0.0
2017-Apr-22 03:00N 50°42' W 001°59'0 0.0
2017-Apr-22 02:30N 50°42' W 001°59'0 0.0
2017-Apr-22 02:00N 50°42' W 001°59'0 0.0
2017-Apr-22 01:30N 50°42' W 001°59'0 0.0
2017-Apr-22 01:00N 50°42' W 001°59'0 0.0
2017-Apr-22 00:30N 50°42' W 001°59'0 0.0
2017-Apr-22 00:00N 50°42' W 001°59'0 0.0
2017-Apr-21 23:30N 50°42' W 001°59'0 0.0
2017-Apr-21 23:00N 50°42' W 001°59'0 0.0
2017-Apr-21 22:30N 50°42' W 001°59'0 0.0
2017-Apr-21 22:00N 50°42' W 001°59'0 0.0
2017-Apr-21 21:30N 50°42' W 001°59'0 0.0
2017-Apr-21 21:00N 50°42' W 001°59'0 0.2
2017-Apr-21 20:30N 50°42' W 001°60'4 8.2
2017-Apr-21 20:01N 50°39' W 001°55'917.3
2017-Apr-21 19:31N 50°31' W 001°50'3218.0
2017-Apr-21 17:43N 49°59' W 001°44'618.1
2017-Apr-21 17:22N 49°53' W 001°43'1317.8
2017-Apr-21 16:39N 49°40' W 001°39'1 0.3
2017-Apr-21 11:27N 49°40' W 001°37'714.7
2017-Apr-21 11:00N 49°46' W 001°41'918.2
2017-Apr-21 10:30N 49°55' W 001°44'3518.2
2017-Apr-21 08:34N 50°30' W 001°52'118.6
2017-Apr-21 08:30N 50°31' W 001°52'918.0
2017-Apr-21 08:00N 50°40' W 001°55'4 7.6
2017-Apr-21 07:30N 50°42' W 001°59'0 0.0
2017-Apr-21 07:00N 50°42' W 001°59'0 0.0
2017-Apr-21 06:30N 50°42' W 001°59'0 0.0
2017-Apr-21 06:00N 50°42' W 001°59'0 0.0
2017-Apr-21 05:30N 50°42' W 001°59'0 0.0
2017-Apr-21 05:00N 50°42' W 001°59'0 0.0
2017-Apr-21 04:30N 50°42' W 001°59'0 0.0
2017-Apr-21 04:00N 50°42' W 001°59'0 0.0
2017-Apr-21 03:30N 50°42' W 001°59'0 0.0
2017-Apr-21 03:00N 50°42' W 001°59'0 0.0
2017-Apr-21 02:30N 50°42' W 001°59'0 0.0
2017-Apr-21 02:00N 50°42' W 001°59'0 0.0
2017-Apr-21 01:30N 50°42' W 001°59'0 0.0
2017-Apr-21 01:00N 50°42' W 001°59'0 0.0
2017-Apr-21 00:30N 50°42' W 001°59'0 0.0
2017-Apr-21 00:00N 50°42' W 001°59'0 0.0
2017-Apr-20 23:30N 50°42' W 001°59'0 0.0
2017-Apr-20 23:00N 50°42' W 001°59'0 0.0
2017-Apr-20 22:30N 50°42' W 001°59'0 0.0
2017-Apr-20 22:00N 50°42' W 001°59'0 0.0
2017-Apr-20 21:30N 50°42' W 001°59'0 0.0
2017-Apr-20 21:00N 50°42' W 001°59'0 0.8
2017-Apr-20 20:30N 50°42' W 001°59'5 9.9
2017-Apr-20 20:00N 50°38' W 001°54'917.6
2017-Apr-20 19:30N 50°30' W 001°51'2 0.2
2017-Apr-20 08:31N 50°28' W 001°52'018.5
2017-Apr-20 08:30N 50°28' W 001°52'918.7
2017-Apr-20 08:00N 50°37' W 001°54'611.0
2017-Apr-20 07:30N 50°42' W 001°58'1 1.3
2017-Apr-20 07:00N 50°42' W 001°59'0 0.0
2017-Apr-20 06:30N 50°42' W 001°59'0 0.0
2017-Apr-20 06:00N 50°42' W 001°59'2 3.1
2017-Apr-20 05:31N 50°42' W 001°57'510.2
2017-Apr-20 05:00N 50°37' W 001°54'714.4
2017-Apr-20 04:30N 50°30' W 001°53'2 0.1
2017-Apr-19 08:32N 50°28' W 001°51'118.5
2017-Apr-19 08:29N 50°29' W 001°51'918.5
2017-Apr-19 08:01N 50°38' W 001°54'510.6
2017-Apr-19 07:31N 50°42' W 001°59'1 1.2
2017-Apr-19 07:01N 50°42' W 001°59'0 0.0
2017-Apr-19 06:31N 50°42' W 001°59'0 0.0
2017-Apr-19 06:01N 50°42' W 001°59'2 3.5
2017-Apr-19 05:31N 50°41' W 001°57'611.3
2017-Apr-19 05:01N 50°36' W 001°53'917.1
2017-Apr-19 04:30N 50°28' W 001°51'2 0.1
2017-Apr-18 08:21N 50°30' W 001°52'618.2
2017-Apr-18 08:00N 50°36' W 001°54'612.8
2017-Apr-18 07:30N 50°42' W 001°58'1 2.4
2017-Apr-18 07:00N 50°42' W 001°59'0 0.0
2017-Apr-18 06:30N 50°42' W 001°59'0 0.0
2017-Apr-18 06:00N 50°42' W 001°59'0 0.0
2017-Apr-18 05:30N 50°42' W 001°59'0 0.0
2017-Apr-18 05:00N 50°42' W 001°59'0 0.0
2017-Apr-18 04:30N 50°42' W 001°59'0 0.0
2017-Apr-18 04:00N 50°42' W 001°59'0 0.0
2017-Apr-18 03:30N 50°42' W 001°59'0 0.0
2017-Apr-18 03:00N 50°42' W 001°59'0 0.0
2017-Apr-18 02:30N 50°42' W 001°59'0 0.0
2017-Apr-18 02:00N 50°42' W 001°59'0 0.0
2017-Apr-18 01:30N 50°42' W 001°59'0 0.0
2017-Apr-18 01:00N 50°42' W 001°59'0 0.0
2017-Apr-18 00:30N 50°42' W 001°59'0 0.0
2017-Apr-18 00:00N 50°42' W 001°59'0 0.0
2017-Apr-17 23:30N 50°42' W 001°59'0 0.0
2017-Apr-17 23:00N 50°42' W 001°59'0 0.0
2017-Apr-17 22:30N 50°42' W 001°59'0 0.0
2017-Apr-17 22:00N 50°42' W 001°59'0 0.0
2017-Apr-17 21:30N 50°42' W 001°59'0 0.0
2017-Apr-17 21:00N 50°42' W 001°59'0 0.9
2017-Apr-17 20:30N 50°42' W 001°59'510.1
2017-Apr-17 20:00N 50°38' W 001°54'816.0
2017-Apr-17 19:30N 50°31' W 001°49'7 0.6
2017-Apr-17 08:41N 50°24' W 001°49'418.3
2017-Apr-17 08:29N 50°28' W 001°50'918.3
2017-Apr-17 08:01N 50°36' W 001°53'611.5
2017-Apr-17 07:30N 50°42' W 001°57'2 3.4
2017-Apr-17 07:00N 50°42' W 001°59'0 0.0
2017-Apr-17 06:30N 50°42' W 001°59'0 0.0
2017-Apr-17 06:00N 50°42' W 001°59'0 0.0
2017-Apr-17 05:30N 50°42' W 001°59'0 0.0
2017-Apr-17 05:00N 50°42' W 001°59'0 0.0
2017-Apr-17 04:30N 50°42' W 001°59'0 0.0
2017-Apr-17 04:00N 50°42' W 001°59'0 0.0
2017-Apr-17 03:30N 50°42' W 001°59'0 0.0
2017-Apr-17 03:00N 50°42' W 001°59'0 0.0
2017-Apr-17 02:30N 50°42' W 001°59'0 0.0
2017-Apr-17 02:00N 50°42' W 001°59'0 0.0
2017-Apr-17 01:30N 50°42' W 001°59'0 0.0
2017-Apr-17 01:00N 50°42' W 001°59'0 0.0
2017-Apr-17 00:30N 50°42' W 001°59'0 0.0
2017-Apr-17 00:00N 50°42' W 001°59'0 0.0
2017-Apr-16 23:30N 50°42' W 001°59'0 0.0
2017-Apr-16 23:00N 50°42' W 001°59'0 0.0
2017-Apr-16 22:30N 50°42' W 001°59'0 0.0
2017-Apr-16 22:00N 50°42' W 001°59'0 0.0
2017-Apr-16 21:30N 50°42' W 001°59'0 0.0
2017-Apr-16 21:00N 50°42' W 001°59'0 0.4
2017-Apr-16 20:30N 50°42' W 001°59'5 9.7
2017-Apr-16 20:00N 50°38' W 001°55'815.9
2017-Apr-16 19:30N 50°31' W 001°52'11 1.1
2017-Apr-16 09:10N 50°20' W 001°48'817.2
2017-Apr-16 08:43N 50°27' W 001°51'416.8
2017-Apr-16 08:30N 50°31' W 001°52'816.1
2017-Apr-16 08:00N 50°39' W 001°55'5 9.1
2017-Apr-16 07:31N 50°42' W 001°59'1 1.0
2017-Apr-16 07:00N 50°42' W 001°59'0 0.0
2017-Apr-16 06:30N 50°42' W 001°59'0 0.0
2017-Apr-16 06:00N 50°42' W 001°59'0 0.0
2017-Apr-16 05:30N 50°42' W 001°59'0 0.0
2017-Apr-16 05:00N 50°42' W 001°59'0 0.0
2017-Apr-16 04:31N 50°42' W 001°59'0 0.0
2017-Apr-16 04:01N 50°42' W 001°59'0 0.0
2017-Apr-16 03:31N 50°42' W 001°59'0 0.0
2017-Apr-16 03:00N 50°42' W 001°59'0 0.0
2017-Apr-16 02:30N 50°42' W 001°59'0 0.0
2017-Apr-16 02:01N 50°42' W 001°59'0 0.0
2017-Apr-16 01:30N 50°42' W 001°59'0 0.0
2017-Apr-16 01:00N 50°42' W 001°59'0 0.0
2017-Apr-16 00:30N 50°42' W 001°59'0 0.0
2017-Apr-16 00:00N 50°42' W 001°59'0 0.0
2017-Apr-15 23:30N 50°42' W 001°59'0 0.0
2017-Apr-15 23:01N 50°42' W 001°59'0 0.0
2017-Apr-15 22:30N 50°42' W 001°59'0 0.0
2017-Apr-15 22:00N 50°42' W 001°59'0 0.0
2017-Apr-15 21:30N 50°42' W 001°59'0 0.0
2017-Apr-15 21:00N 50°42' W 001°59'0 0.8
2017-Apr-15 20:30N 50°42' W 001°59'510.4
2017-Apr-15 20:00N 50°38' W 001°54'917.7
2017-Apr-15 19:31N 50°30' W 001°50'2 0.2
2017-Apr-15 08:33N 50°28' W 001°52'117.5
2017-Apr-15 08:30N 50°28' W 001°51'917.7
2017-Apr-15 08:00N 50°37' W 001°53'511.0
2017-Apr-15 07:31N 50°42' W 001°57'1 3.0
2017-Apr-15 07:01N 50°42' W 001°59'0 0.0
2017-Apr-15 06:31N 50°42' W 001°59'0 0.0
2017-Apr-15 06:01N 50°42' W 001°59'0 0.0
2017-Apr-15 05:30N 50°42' W 001°59'0 0.0
2017-Apr-15 05:01N 50°42' W 001°59'0 0.0
2017-Apr-15 04:30N 50°42' W 001°59'0 0.0
2017-Apr-15 04:01N 50°42' W 001°59'0 0.0
2017-Apr-15 03:31N 50°42' W 001°59'0 0.0
2017-Apr-15 03:01N 50°42' W 001°59'0 0.0
2017-Apr-15 02:31N 50°42' W 001°59'0 0.0
2017-Apr-15 02:01N 50°42' W 001°59'0 0.0
2017-Apr-15 01:30N 50°42' W 001°59'0 0.0
2017-Apr-15 01:01N 50°42' W 001°59'0 0.0
2017-Apr-15 00:31N 50°42' W 001°59'0 0.0
2017-Apr-15 00:01N 50°42' W 001°59'0 0.0
2017-Apr-14 23:31N 50°42' W 001°59'0 0.0
2017-Apr-14 23:01N 50°42' W 001°59'0 0.0
2017-Apr-14 22:30N 50°42' W 001°59'0 0.0
2017-Apr-14 22:01N 50°42' W 001°59'0 0.0
2017-Apr-14 21:30N 50°42' W 001°59'0 0.0
2017-Apr-14 21:01N 50°42' W 001°59'1 2.4
2017-Apr-14 20:31N 50°42' W 001°58'5 9.9
2017-Apr-14 20:00N 50°38' W 001°54'918.1
2017-Apr-14 19:31N 50°29' W 001°52'2 0.1
2017-Apr-14 08:37N 50°27' W 001°51'217.9
2017-Apr-14 08:30N 50°29' W 001°51'917.9
2017-Apr-14 08:00N 50°38' W 001°54'5 9.9
2017-Apr-14 07:31N 50°42' W 001°58'1 1.9
2017-Apr-14 07:00N 50°42' W 001°59'0 0.0
2017-Apr-14 06:30N 50°42' W 001°59'0 0.0
2017-Apr-14 06:01N 50°42' W 001°59'0 0.0
2017-Apr-14 05:31N 50°42' W 001°59'0 0.0
2017-Apr-14 05:00N 50°42' W 001°59'0 0.0
2017-Apr-14 04:30N 50°42' W 001°59'0 0.0
2017-Apr-14 04:00N 50°42' W 001°59'0 0.0
2017-Apr-14 03:30N 50°42' W 001°59'0 0.0
2017-Apr-14 03:00N 50°42' W 001°59'0 0.0
2017-Apr-14 02:30N 50°42' W 001°59'0 0.0
2017-Apr-14 02:00N 50°42' W 001°59'0 0.0
2017-Apr-14 01:30N 50°42' W 001°59'0 0.0
2017-Apr-14 01:00N 50°42' W 001°59'0 0.0
2017-Apr-14 00:30N 50°42' W 001°59'0 0.0
2017-Apr-14 00:01N 50°42' W 001°59'0 0.0
2017-Apr-13 23:30N 50°42' W 001°59'0 0.0
2017-Apr-13 23:00N 50°42' W 001°59'0 0.0
2017-Apr-13 22:31N 50°42' W 001°59'0 0.0
2017-Apr-13 22:01N 50°42' W 001°59'0 0.0
2017-Apr-13 21:30N 50°42' W 001°59'0 0.0
2017-Apr-13 21:00N 50°42' W 001°59'0 0.3
2017-Apr-13 20:30N 50°42' W 001°59'4 8.8
2017-Apr-13 20:00N 50°39' W 001°55'816.5
2017-Apr-13 19:30N 50°31' W 001°50'2818.7
2017-Apr-13 17:59N 50°03' W 001°45'27 2.8
2017-Apr-13 08:27N 50°30' W 001°50'818.0
2017-Apr-13 08:01N 50°38' W 001°54'  
Track history (hours):
 
Tides and Currents Weather Stations Pressure Air Temp Water Temp Dewpoint Dewpoint Depression Visibility Wind Speed Wind Dir Waves Ship Positions

Barfleur

Operator: Brittany Ferries

Last reported at 2017-Apr-23 08:00 UTC. Time now 2017-Apr-23 08:08 UTC.
Position N 50°34' W 001°53'.

Length 158 m; draft 5 m.

Type: Passenger vessel. MMSI: 227289000.

Date/timePositionNaut miles runAvg speedWind from/ knotsBaromVisibWave heightAir tempDewpointWater temp
2017-Apr-23 08:00N 50°34' W 001°53'815.1
2017-Apr-23 07:30N 50°41' W 001°57'2 4.2
2017-Apr-23 07:00N 50°42' W 001°59'0 0.0
2017-Apr-23 06:30N 50°42' W 001°59'0 0.0
2017-Apr-23 06:00N 50°42' W 001°59'0 0.0
2017-Apr-23 05:30N 50°42' W 001°59'0 0.0
2017-Apr-23 05:00N 50°42' W 001°59'0 0.0
2017-Apr-23 04:30N 50°42' W 001°59'0 0.0
2017-Apr-23 04:00N 50°42' W 001°59'0 0.0
2017-Apr-23 03:30N 50°42' W 001°59'0 0.0
2017-Apr-23 03:00N 50°42' W 001°59'0 0.0
2017-Apr-23 02:30N 50°42' W 001°59'0 0.0
2017-Apr-23 02:00N 50°42' W 001°59'0 0.0
2017-Apr-23 01:30N 50°42' W 001°59'0 0.0
2017-Apr-23 01:00N 50°42' W 001°59'0 0.0
2017-Apr-23 00:30N 50°42' W 001°59'0 0.0
2017-Apr-23 00:00N 50°42' W 001°59'0 0.0
2017-Apr-22 23:30N 50°42' W 001°59'0 0.0
2017-Apr-22 23:00N 50°42' W 001°59'0 0.0
2017-Apr-22 22:30N 50°42' W 001°59'0 0.0
2017-Apr-22 22:00N 50°42' W 001°59'0 0.0
2017-Apr-22 21:30N 50°42' W 001°59'0 0.0
2017-Apr-22 21:00N 50°42' W 001°59'1 2.2
2017-Apr-22 20:30N 50°42' W 001°58'612.0
2017-Apr-22 20:00N 50°37' W 001°53'5 0.4
2017-Apr-22 08:13N 50°32' W 001°53'418.7
2017-Apr-22 08:00N 50°36' W 001°54'613.0
2017-Apr-22 07:30N 50°42' W 001°57'1 2.8
2017-Apr-22 07:00N 50°42' W 001°59'0 0.0
2017-Apr-22 06:30N 50°42' W 001°59'0 0.0
2017-Apr-22 06:00N 50°42' W 001°59'0 0.0
2017-Apr-22 05:30N 50°42' W 001°59'0 0.0
2017-Apr-22 05:00N 50°42' W 001°59'0 0.0
2017-Apr-22 04:30N 50°42' W 001°59'0 0.0
2017-Apr-22 04:00N 50°42' W 001°59'0 0.0
2017-Apr-22 03:30N 50°42' W 001°59'0 0.0
2017-Apr-22 03:00N 50°42' W 001°59'0 0.0
2017-Apr-22 02:30N 50°42' W 001°59'0 0.0
2017-Apr-22 02:00N 50°42' W 001°59'0 0.0
2017-Apr-22 01:30N 50°42' W 001°59'0 0.0
2017-Apr-22 01:00N 50°42' W 001°59'0 0.0
2017-Apr-22 00:30N 50°42' W 001°59'0 0.0
2017-Apr-22 00:00N 50°42' W 001°59'0 0.0
2017-Apr-21 23:30N 50°42' W 001°59'0 0.0
2017-Apr-21 23:00N 50°42' W 001°59'0 0.0
2017-Apr-21 22:30N 50°42' W 001°59'0 0.0
2017-Apr-21 22:00N 50°42' W 001°59'0 0.0
2017-Apr-21 21:30N 50°42' W 001°59'0 0.0
2017-Apr-21 21:00N 50°42' W 001°59'0 0.2
2017-Apr-21 20:30N 50°42' W 001°60'4 8.2
2017-Apr-21 20:01N 50°39' W 001°55'917.3
2017-Apr-21 19:31N 50°31' W 001°50'3218.0
2017-Apr-21 17:43N 49°59' W 001°44'618.1
2017-Apr-21 17:22N 49°53' W 001°43'1317.8
2017-Apr-21 16:39N 49°40' W 001°39'1 0.3
2017-Apr-21 11:27N 49°40' W 001°37'714.7
2017-Apr-21 11:00N 49°46' W 001°41'918.2
2017-Apr-21 10:30N 49°55' W 001°44'3518.2
2017-Apr-21 08:34N 50°30' W 001°52'118.6
2017-Apr-21 08:30N 50°31' W 001°52'918.0
2017-Apr-21 08:00N 50°40' W 001°55'4 7.6
2017-Apr-21 07:30N 50°42' W 001°59'0 0.0
2017-Apr-21 07:00N 50°42' W 001°59'0 0.0
2017-Apr-21 06:30N 50°42' W 001°59'0 0.0
2017-Apr-21 06:00N 50°42' W 001°59'0 0.0
2017-Apr-21 05:30N 50°42' W 001°59'0 0.0
2017-Apr-21 05:00N 50°42' W 001°59'0 0.0
2017-Apr-21 04:30N 50°42' W 001°59'0 0.0
2017-Apr-21 04:00N 50°42' W 001°59'0 0.0
2017-Apr-21 03:30N 50°42' W 001°59'0 0.0
2017-Apr-21 03:00N 50°42' W 001°59'0 0.0
2017-Apr-21 02:30N 50°42' W 001°59'0 0.0
2017-Apr-21 02:00N 50°42' W 001°59'0 0.0
2017-Apr-21 01:30N 50°42' W 001°59'0 0.0
2017-Apr-21 01:00N 50°42' W 001°59'0 0.0
2017-Apr-21 00:30N 50°42' W 001°59'0 0.0
2017-Apr-21 00:00N 50°42' W 001°59'0 0.0
2017-Apr-20 23:30N 50°42' W 001°59'0 0.0
2017-Apr-20 23:00N 50°42' W 001°59'0 0.0
2017-Apr-20 22:30N 50°42' W 001°59'0 0.0
2017-Apr-20 22:00N 50°42' W 001°59'0 0.0
2017-Apr-20 21:30N 50°42' W 001°59'0 0.0
2017-Apr-20 21:00N 50°42' W 001°59'0 0.8
2017-Apr-20 20:30N 50°42' W 001°59'5 9.9
2017-Apr-20 20:00N 50°38' W 001°54'917.6
2017-Apr-20 19:30N 50°30' W 001°51'2 0.2
2017-Apr-20 08:31N 50°28' W 001°52'018.5
2017-Apr-20 08:30N 50°28' W 001°52'918.7
2017-Apr-20 08:00N 50°37' W 001°54'611.0
2017-Apr-20 07:30N 50°42' W 001°58'1 1.3
2017-Apr-20 07:00N 50°42' W 001°59'0 0.0
2017-Apr-20 06:30N 50°42' W 001°59'0 0.0
2017-Apr-20 06:00N 50°42' W 001°59'2 3.1
2017-Apr-20 05:31N 50°42' W 001°57'510.2
2017-Apr-20 05:00N 50°37' W 001°54'714.4
2017-Apr-20 04:30N 50°30' W 001°53'2 0.1
2017-Apr-19 08:32N 50°28' W 001°51'118.5
2017-Apr-19 08:29N 50°29' W 001°51'918.5
2017-Apr-19 08:01N 50°38' W 001°54'510.6
2017-Apr-19 07:31N 50°42' W 001°59'1 1.2
2017-Apr-19 07:01N 50°42' W 001°59'0 0.0
2017-Apr-19 06:31N 50°42' W 001°59'0 0.0
2017-Apr-19 06:01N 50°42' W 001°59'2 3.5
2017-Apr-19 05:31N 50°41' W 001°57'611.3
2017-Apr-19 05:01N 50°36' W 001°53'917.1
2017-Apr-19 04:30N 50°28' W 001°51'2 0.1
2017-Apr-18 08:21N 50°30' W 001°52'618.2
2017-Apr-18 08:00N 50°36' W 001°54'612.8
2017-Apr-18 07:30N 50°42' W 001°58'1 2.4
2017-Apr-18 07:00N 50°42' W 001°59'0 0.0
2017-Apr-18 06:30N 50°42' W 001°59'0 0.0
2017-Apr-18 06:00N 50°42' W 001°59'0 0.0
2017-Apr-18 05:30N 50°42' W 001°59'0 0.0
2017-Apr-18 05:00N 50°42' W 001°59'0 0.0
2017-Apr-18 04:30N 50°42' W 001°59'0 0.0
2017-Apr-18 04:00N 50°42' W 001°59'0 0.0
2017-Apr-18 03:30N 50°42' W 001°59'0 0.0
2017-Apr-18 03:00N 50°42' W 001°59'0 0.0
2017-Apr-18 02:30N 50°42' W 001°59'0 0.0
2017-Apr-18 02:00N 50°42' W 001°59'0 0.0
2017-Apr-18 01:30N 50°42' W 001°59'0 0.0
2017-Apr-18 01:00N 50°42' W 001°59'0 0.0
2017-Apr-18 00:30N 50°42' W 001°59'0 0.0
2017-Apr-18 00:00N 50°42' W 001°59'0 0.0
2017-Apr-17 23:30N 50°42' W 001°59'0 0.0
2017-Apr-17 23:00N 50°42' W 001°59'0 0.0
2017-Apr-17 22:30N 50°42' W 001°59'0 0.0
2017-Apr-17 22:00N 50°42' W 001°59'0 0.0
2017-Apr-17 21:30N 50°42' W 001°59'0 0.0
2017-Apr-17 21:00N 50°42' W 001°59'0 0.9
2017-Apr-17 20:30N 50°42' W 001°59'510.1
2017-Apr-17 20:00N 50°38' W 001°54'816.0
2017-Apr-17 19:30N 50°31' W 001°49'7 0.6
2017-Apr-17 08:41N 50°24' W 001°49'418.3
2017-Apr-17 08:29N 50°28' W 001°50'918.3
2017-Apr-17 08:01N 50°36' W 001°53'611.5
2017-Apr-17 07:30N 50°42' W 001°57'2 3.4
2017-Apr-17 07:00N 50°42' W 001°59'0 0.0
2017-Apr-17 06:30N 50°42' W 001°59'0 0.0
2017-Apr-17 06:00N 50°42' W 001°59'0 0.0
2017-Apr-17 05:30N 50°42' W 001°59'0 0.0
2017-Apr-17 05:00N 50°42' W 001°59'0 0.0
2017-Apr-17 04:30N 50°42' W 001°59'0 0.0
2017-Apr-17 04:00N 50°42' W 001°59'0 0.0
2017-Apr-17 03:30N 50°42' W 001°59'0 0.0
2017-Apr-17 03:00N 50°42' W 001°59'0 0.0
2017-Apr-17 02:30N 50°42' W 001°59'0 0.0
2017-Apr-17 02:00N 50°42' W 001°59'0 0.0
2017-Apr-17 01:30N 50°42' W 001°59'0 0.0
2017-Apr-17 01:00N 50°42' W 001°59'0 0.0
2017-Apr-17 00:30N 50°42' W 001°59'0 0.0
2017-Apr-17 00:00N 50°42' W 001°59'0 0.0
2017-Apr-16 23:30N 50°42' W 001°59'0 0.0
2017-Apr-16 23:00N 50°42' W 001°59'0 0.0
2017-Apr-16 22:30N 50°42' W 001°59'0 0.0
2017-Apr-16 22:00N 50°42' W 001°59'0 0.0
2017-Apr-16 21:30N 50°42' W 001°59'0 0.0
2017-Apr-16 21:00N 50°42' W 001°59'0 0.4
2017-Apr-16 20:30N 50°42' W 001°59'5 9.7
2017-Apr-16 20:00N 50°38' W 001°55'815.9
2017-Apr-16 19:30N 50°31' W 001°52'11 1.1
2017-Apr-16 09:10N 50°20' W 001°48'817.2
2017-Apr-16 08:43N 50°27' W 001°51'416.8
2017-Apr-16 08:30N 50°31' W 001°52'816.1
2017-Apr-16 08:00N 50°39' W 001°55'5 9.1
2017-Apr-16 07:31N 50°42' W 001°59'1 1.0
2017-Apr-16 07:00N 50°42' W 001°59'0 0.0
2017-Apr-16 06:30N 50°42' W 001°59'0 0.0
2017-Apr-16 06:00N 50°42' W 001°59'0 0.0
2017-Apr-16 05:30N 50°42' W 001°59'0 0.0
2017-Apr-16 05:00N 50°42' W 001°59'0 0.0
2017-Apr-16 04:31N 50°42' W 001°59'0 0.0
2017-Apr-16 04:01N 50°42' W 001°59'0 0.0
2017-Apr-16 03:31N 50°42' W 001°59'0 0.0
2017-Apr-16 03:00N 50°42' W 001°59'0 0.0
2017-Apr-16 02:30N 50°42' W 001°59'0 0.0
2017-Apr-16 02:01N 50°42' W 001°59'0 0.0
2017-Apr-16 01:30N 50°42' W 001°59'0 0.0
2017-Apr-16 01:00N 50°42' W 001°59'0 0.0
2017-Apr-16 00:30N 50°42' W 001°59'0 0.0
2017-Apr-16 00:00N 50°42' W 001°59'0 0.0
2017-Apr-15 23:30N 50°42' W 001°59'0 0.0
2017-Apr-15 23:01N 50°42' W 001°59'0 0.0
2017-Apr-15 22:30N 50°42' W 001°59'0 0.0
2017-Apr-15 22:00N 50°42' W 001°59'0 0.0
2017-Apr-15 21:30N 50°42' W 001°59'0 0.0
2017-Apr-15 21:00N 50°42' W 001°59'0 0.8
2017-Apr-15 20:30N 50°42' W 001°59'510.4
2017-Apr-15 20:00N 50°38' W 001°54'917.7
2017-Apr-15 19:31N 50°30' W 001°50'2 0.2
2017-Apr-15 08:33N 50°28' W 001°52'117.5
2017-Apr-15 08:30N 50°28' W 001°51'917.7
2017-Apr-15 08:00N 50°37' W 001°53'511.0
2017-Apr-15 07:31N 50°42' W 001°57'1 3.0
2017-Apr-15 07:01N 50°42' W 001°59'0 0.0
2017-Apr-15 06:31N 50°42' W 001°59'0 0.0
2017-Apr-15 06:01N 50°42' W 001°59'0 0.0
2017-Apr-15 05:30N 50°42' W 001°59'0 0.0
2017-Apr-15 05:01N 50°42' W 001°59'0 0.0
2017-Apr-15 04:30N 50°42' W 001°59'0 0.0
2017-Apr-15 04:01N 50°42' W 001°59'0 0.0
2017-Apr-15 03:31N 50°42' W 001°59'0 0.0
2017-Apr-15 03:01N 50°42' W 001°59'0 0.0
2017-Apr-15 02:31N 50°42' W 001°59'0 0.0
2017-Apr-15 02:01N 50°42' W 001°59'0 0.0
2017-Apr-15 01:30N 50°42' W 001°59'0 0.0
2017-Apr-15 01:01N 50°42' W 001°59'0 0.0
2017-Apr-15 00:31N 50°42' W 001°59'0 0.0
2017-Apr-15 00:01N 50°42' W 001°59'0 0.0
2017-Apr-14 23:31N 50°42' W 001°59'0 0.0
2017-Apr-14 23:01N 50°42' W 001°59'0 0.0
2017-Apr-14 22:30N 50°42' W 001°59'0 0.0
2017-Apr-14 22:01N 50°42' W 001°59'0 0.0
2017-Apr-14 21:30N 50°42' W 001°59'0 0.0
2017-Apr-14 21:01N 50°42' W 001°59'1 2.4
2017-Apr-14 20:31N 50°42' W 001°58'5 9.9
2017-Apr-14 20:00N 50°38' W 001°54'918.1
2017-Apr-14 19:31N 50°29' W 001°52'2 0.1
2017-Apr-14 08:37N 50°27' W 001°51'217.9
2017-Apr-14 08:30N 50°29' W 001°51'917.9
2017-Apr-14 08:00N 50°38' W 001°54'5 9.9
2017-Apr-14 07:31N 50°42' W 001°58'1 1.9
2017-Apr-14 07:00N 50°42' W 001°59'0 0.0
2017-Apr-14 06:30N 50°42' W 001°59'0 0.0
2017-Apr-14 06:01N 50°42' W 001°59'0 0.0
2017-Apr-14 05:31N 50°42' W 001°59'0 0.0
2017-Apr-14 05:00N 50°42' W 001°59'0 0.0
2017-Apr-14 04:30N 50°42' W 001°59'0 0.0
2017-Apr-14 04:00N 50°42' W 001°59'0 0.0
2017-Apr-14 03:30N 50°42' W 001°59'0 0.0
2017-Apr-14 03:00N 50°42' W 001°59'0 0.0
2017-Apr-14 02:30N 50°42' W 001°59'0 0.0
2017-Apr-14 02:00N 50°42' W 001°59'0 0.0
2017-Apr-14 01:30N 50°42' W 001°59'0 0.0
2017-Apr-14 01:00N 50°42' W 001°59'0 0.0
2017-Apr-14 00:30N 50°42' W 001°59'0 0.0
2017-Apr-14 00:01N 50°42' W 001°59'0 0.0
2017-Apr-13 23:30N 50°42' W 001°59'0 0.0
2017-Apr-13 23:00N 50°42' W 001°59'0 0.0
2017-Apr-13 22:31N 50°42' W 001°59'0 0.0
2017-Apr-13 22:01N 50°42' W 001°59'0 0.0
2017-Apr-13 21:30N 50°42' W 001°59'0 0.0
2017-Apr-13 21:00N 50°42' W 001°59'0 0.3
2017-Apr-13 20:30N 50°42' W 001°59'4 8.8
2017-Apr-13 20:00N 50°39' W 001°55'816.5
2017-Apr-13 19:30N 50°31' W 001°50'2818.7
2017-Apr-13 17:59N 50°03' W 001°45'27 2.8
2017-Apr-13 08:27N 50°30' W 001°50'818.0
2017-Apr-13 08:01N 50°38' W 001°54'  

Dump ship's entire track history